sensor_id;sensor_type;location;lat;lon;timestamp;pressure;altitude;pressure_sealevel;temperature;humidity
77323;BME280;66384;51.052;9.850;2023-07-28T00:01:02;97610.20;;;17.29;81.87
77323;BME280;66384;51.052;9.850;2023-07-28T00:03:36;97609.34;;;17.28;81.87
77323;BME280;66384;51.052;9.850;2023-07-28T00:06:07;97603.14;;;17.25;81.90
77323;BME280;66384;51.052;9.850;2023-07-28T00:08:39;97600.41;;;17.23;81.88
77323;BME280;66384;51.052;9.850;2023-07-28T00:11:12;97595.02;;;17.22;81.91
77323;BME280;66384;51.052;9.850;2023-07-28T00:13:44;97595.08;;;17.19;81.78
77323;BME280;66384;51.052;9.850;2023-07-28T00:16:16;97601.04;;;17.17;81.96
77323;BME280;66384;51.052;9.850;2023-07-28T00:18:47;97600.57;;;17.13;81.94
77323;BME280;66384;51.052;9.850;2023-07-28T00:21:19;97602.89;;;17.10;81.95
77323;BME280;66384;51.052;9.850;2023-07-28T00:23:50;97595.12;;;17.08;82.02
77323;BME280;66384;51.052;9.850;2023-07-28T00:26:22;97593.73;;;17.06;82.05
77323;BME280;66384;51.052;9.850;2023-07-28T00:28:54;97590.27;;;17.06;82.18
77323;BME280;66384;51.052;9.850;2023-07-28T00:31:25;97590.48;;;17.04;82.20
77323;BME280;66384;51.052;9.850;2023-07-28T00:33:57;97592.48;;;16.99;82.14
77323;BME280;66384;51.052;9.850;2023-07-28T00:36:28;97593.02;;;16.97;82.22
77323;BME280;66384;51.052;9.850;2023-07-28T00:39:00;97590.63;;;16.96;82.16
77323;BME280;66384;51.052;9.850;2023-07-28T00:41:31;97586.14;;;16.94;82.31
77323;BME280;66384;51.052;9.850;2023-07-28T00:44:03;97586.48;;;16.94;82.13
77323;BME280;66384;51.052;9.850;2023-07-28T00:46:35;97590.13;;;16.94;82.21
77323;BME280;66384;51.052;9.850;2023-07-28T00:49:06;97585.44;;;16.94;82.19
77323;BME280;66384;51.052;9.850;2023-07-28T00:51:38;97582.67;;;16.94;82.18
77323;BME280;66384;51.052;9.850;2023-07-28T00:54:11;97587.20;;;16.93;82.11
77323;BME280;66384;51.052;9.850;2023-07-28T00:56:43;97591.55;;;16.92;82.15
77323;BME280;66384;51.052;9.850;2023-07-28T00:59:15;97588.96;;;16.91;81.99
77323;BME280;66384;51.052;9.850;2023-07-28T01:01:47;97596.98;;;16.90;82.01
77323;BME280;66384;51.052;9.850;2023-07-28T01:04:19;97604.45;;;16.90;81.99
77323;BME280;66384;51.052;9.850;2023-07-28T01:06:56;97613.13;;;16.90;82.03
77323;BME280;66384;51.052;9.850;2023-07-28T01:09:34;97606.33;;;16.91;81.92
77323;BME280;66384;51.052;9.850;2023-07-28T01:12:09;97599.92;;;16.90;81.78
77323;BME280;66384;51.052;9.850;2023-07-28T01:14:42;97598.92;;;16.88;81.76
77323;BME280;66384;51.052;9.850;2023-07-28T01:17:14;97597.56;;;16.87;81.72
77323;BME280;66384;51.052;9.850;2023-07-28T01:19:46;97600.70;;;16.86;81.65
77323;BME280;66384;51.052;9.850;2023-07-28T01:22:30;97602.95;;;16.86;81.68
77323;BME280;66384;51.052;9.850;2023-07-28T01:25:16;97599.84;;;16.86;81.76
77323;BME280;66384;51.052;9.850;2023-07-28T01:27:50;97597.75;;;16.86;81.60
77323;BME280;66384;51.052;9.850;2023-07-28T01:30:22;97594.27;;;16.86;81.50
77323;BME280;66384;51.052;9.850;2023-07-28T01:32:57;97605.02;;;16.86;81.45
77323;BME280;66384;51.052;9.850;2023-07-28T01:35:29;97603.11;;;16.87;81.43
77323;BME280;66384;51.052;9.850;2023-07-28T01:38:00;97592.38;;;16.85;81.43
77323;BME280;66384;51.052;9.850;2023-07-28T01:40:32;97598.14;;;16.82;81.48
77323;BME280;66384;51.052;9.850;2023-07-28T01:43:03;97596.75;;;16.82;81.27
77323;BME280;66384;51.052;9.850;2023-07-28T01:45:35;97592.43;;;16.81;81.35
77323;BME280;66384;51.052;9.850;2023-07-28T01:48:07;97595.22;;;16.80;81.26
77323;BME280;66384;51.052;9.850;2023-07-28T01:50:39;97598.75;;;16.77;81.28
77323;BME280;66384;51.052;9.850;2023-07-28T01:53:11;97597.55;;;16.75;81.26
77323;BME280;66384;51.052;9.850;2023-07-28T01:55:42;97594.62;;;16.73;81.49
77323;BME280;66384;51.052;9.850;2023-07-28T01:58:14;97607.48;;;16.72;81.31
77323;BME280;66384;51.052;9.850;2023-07-28T02:00:46;97611.65;;;16.72;81.39
77323;BME280;66384;51.052;9.850;2023-07-28T02:03:17;97605.54;;;16.73;81.36
77323;BME280;66384;51.052;9.850;2023-07-28T02:05:49;97612.30;;;16.74;81.43
77323;BME280;66384;51.052;9.850;2023-07-28T02:08:20;97613.70;;;16.74;81.40
77323;BME280;66384;51.052;9.850;2023-07-28T02:10:54;97612.33;;;16.73;81.38
77323;BME280;66384;51.052;9.850;2023-07-28T02:13:25;97611.33;;;16.70;81.24
77323;BME280;66384;51.052;9.850;2023-07-28T02:15:57;97610.34;;;16.67;81.34
77323;BME280;66384;51.052;9.850;2023-07-28T02:18:28;97611.41;;;16.64;81.26
77323;BME280;66384;51.052;9.850;2023-07-28T02:21:00;97615.23;;;16.64;81.34
77323;BME280;66384;51.052;9.850;2023-07-28T02:23:31;97612.82;;;16.64;81.23
77323;BME280;66384;51.052;9.850;2023-07-28T02:26:03;97615.42;;;16.64;81.18
77323;BME280;66384;51.052;9.850;2023-07-28T02:28:34;97610.90;;;16.64;81.20
77323;BME280;66384;51.052;9.850;2023-07-28T02:31:06;97612.80;;;16.65;81.24
77323;BME280;66384;51.052;9.850;2023-07-28T02:33:37;97618.86;;;16.65;81.27
77323;BME280;66384;51.052;9.850;2023-07-28T02:36:09;97615.08;;;16.64;81.06
77323;BME280;66384;51.052;9.850;2023-07-28T02:38:40;97617.17;;;16.62;81.00
77323;BME280;66384;51.052;9.850;2023-07-28T02:41:12;97622.92;;;16.62;81.03
77323;BME280;66384;51.052;9.850;2023-07-28T02:43:44;97619.66;;;16.60;81.09
77323;BME280;66384;51.052;9.850;2023-07-28T02:46:15;97619.66;;;16.59;81.08
77323;BME280;66384;51.052;9.850;2023-07-28T02:48:47;97620.88;;;16.59;80.88
77323;BME280;66384;51.052;9.850;2023-07-28T02:51:18;97626.61;;;16.58;81.10
77323;BME280;66384;51.052;9.850;2023-07-28T02:53:50;97625.75;;;16.59;81.02
77323;BME280;66384;51.052;9.850;2023-07-28T02:56:21;97628.86;;;16.59;80.98
77323;BME280;66384;51.052;9.850;2023-07-28T02:58:53;97630.08;;;16.59;80.90
77323;BME280;66384;51.052;9.850;2023-07-28T03:01:24;97638.23;;;16.60;80.95
77323;BME280;66384;51.052;9.850;2023-07-28T03:03:56;97636.11;;;16.62;81.00
77323;BME280;66384;51.052;9.850;2023-07-28T03:06:27;97639.04;;;16.63;80.90
77323;BME280;66384;51.052;9.850;2023-07-28T03:09:00;97637.13;;;16.63;80.85
77323;BME280;66384;51.052;9.850;2023-07-28T03:11:32;97642.52;;;16.63;80.78
77323;BME280;66384;51.052;9.850;2023-07-28T03:14:04;97642.86;;;16.64;80.84
77323;BME280;66384;51.052;9.850;2023-07-28T03:16:35;97645.25;;;16.65;80.75
77323;BME280;66384;51.052;9.850;2023-07-28T03:19:08;97650.30;;;16.65;80.89
77323;BME280;66384;51.052;9.850;2023-07-28T03:21:39;97653.09;;;16.64;80.80
77323;BME280;66384;51.052;9.850;2023-07-28T03:24:11;97651.89;;;16.63;80.82
77323;BME280;66384;51.052;9.850;2023-07-28T03:26:43;97652.41;;;16.64;80.79
77323;BME280;66384;51.052;9.850;2023-07-28T03:29:14;97654.33;;;16.62;80.76
77323;BME280;66384;51.052;9.850;2023-07-28T03:31:46;97650.73;;;16.59;80.81
77323;BME280;66384;51.052;9.850;2023-07-28T03:34:18;97649.39;;;16.56;80.90
77323;BME280;66384;51.052;9.850;2023-07-28T03:36:49;97652.55;;;16.53;80.84
77323;BME280;66384;51.052;9.850;2023-07-28T03:39:21;97656.21;;;16.53;80.81
77323;BME280;66384;51.052;9.850;2023-07-28T03:41:52;97655.88;;;16.52;80.91
77323;BME280;66384;51.052;9.850;2023-07-28T03:44:24;97660.20;;;16.53;80.88
77323;BME280;66384;51.052;9.850;2023-07-28T03:46:56;97661.41;;;16.54;80.98
77323;BME280;66384;51.052;9.850;2023-07-28T03:49:27;97660.02;;;16.53;80.95
77323;BME280;66384;51.052;9.850;2023-07-28T03:51:59;97656.20;;;16.54;81.07
77323;BME280;66384;51.052;9.850;2023-07-28T03:54:30;97655.17;;;16.53;80.85
77323;BME280;66384;51.052;9.850;2023-07-28T03:57:02;97656.91;;;16.52;80.90
77323;BME280;66384;51.052;9.850;2023-07-28T03:59:33;97657.27;;;16.52;80.87
77323;BME280;66384;51.052;9.850;2023-07-28T04:02:05;97659.70;;;16.52;81.07
77323;BME280;66384;51.052;9.850;2023-07-28T04:04:37;97654.67;;;16.50;81.11
77323;BME280;66384;51.052;9.850;2023-07-28T04:07:09;97652.96;;;16.49;81.06
77323;BME280;66384;51.052;9.850;2023-07-28T04:09:41;97653.63;;;16.50;81.17
77323;BME280;66384;51.052;9.850;2023-07-28T04:12:12;97653.98;;;16.51;81.19
77323;BME280;66384;51.052;9.850;2023-07-28T04:14:44;97651.89;;;16.51;81.07
77323;BME280;66384;51.052;9.850;2023-07-28T04:17:15;97652.27;;;16.50;81.00
77323;BME280;66384;51.052;9.850;2023-07-28T04:19:47;97655.02;;;16.51;81.05
77323;BME280;66384;51.052;9.850;2023-07-28T04:22:18;97660.38;;;16.52;81.19
77323;BME280;66384;51.052;9.850;2023-07-28T04:24:51;97663.13;;;16.54;81.18
77323;BME280;66384;51.052;9.850;2023-07-28T04:27:24;97661.73;;;16.55;80.97
77323;BME280;66384;51.052;9.850;2023-07-28T04:29:55;97664.32;;;16.57;81.12
77323;BME280;66384;51.052;9.850;2023-07-28T04:32:27;97665.86;;;16.58;81.09
77323;BME280;66384;51.052;9.850;2023-07-28T04:34:59;97662.55;;;16.58;81.20
77323;BME280;66384;51.052;9.850;2023-07-28T04:37:30;97658.05;;;16.58;81.12
77323;BME280;66384;51.052;9.850;2023-07-28T04:40:02;97655.08;;;16.59;81.20
77323;BME280;66384;51.052;9.850;2023-07-28T04:42:34;97657.30;;;16.61;81.24
77323;BME280;66384;51.052;9.850;2023-07-28T04:45:09;97652.77;;;16.62;81.08
77323;BME280;66384;51.052;9.850;2023-07-28T04:47:41;97653.63;;;16.63;81.14
77323;BME280;66384;51.052;9.850;2023-07-28T04:50:13;97654.50;;;16.63;81.11
77323;BME280;66384;51.052;9.850;2023-07-28T04:52:44;97660.71;;;16.65;81.18
77323;BME280;66384;51.052;9.850;2023-07-28T04:55:16;97665.38;;;16.68;81.10
77323;BME280;66384;51.052;9.850;2023-07-28T04:57:47;97666.21;;;16.70;81.10
77323;BME280;66384;51.052;9.850;2023-07-28T05:00:19;97670.89;;;16.70;80.95
77323;BME280;66384;51.052;9.850;2023-07-28T05:02:51;97668.05;;;16.74;81.10
77323;BME280;66384;51.052;9.850;2023-07-28T05:05:22;97668.21;;;16.75;81.04
77323;BME280;66384;51.052;9.850;2023-07-28T05:07:54;97671.16;;;16.78;80.98
77323;BME280;66384;51.052;9.850;2023-07-28T05:10:25;97672.16;;;16.79;81.01
77323;BME280;66384;51.052;9.850;2023-07-28T05:12:57;97677.70;;;16.81;81.02
77323;BME280;66384;51.052;9.850;2023-07-28T05:15:28;97683.76;;;16.82;81.01
77323;BME280;66384;51.052;9.850;2023-07-28T05:18:00;97681.84;;;16.83;80.76
77323;BME280;66384;51.052;9.850;2023-07-28T05:20:31;97686.49;;;16.86;80.96
77323;BME280;66384;51.052;9.850;2023-07-28T05:23:03;97690.27;;;16.89;80.77
77323;BME280;66384;51.052;9.850;2023-07-28T05:25:35;97689.38;;;16.90;80.74
77323;BME280;66384;51.052;9.850;2023-07-28T05:28:07;97688.13;;;16.92;80.75
77323;BME280;66384;51.052;9.850;2023-07-28T05:30:38;97693.32;;;16.94;80.81
77323;BME280;66384;51.052;9.850;2023-07-28T05:33:10;97695.17;;;16.97;80.77
77323;BME280;66384;51.052;9.850;2023-07-28T05:35:41;97696.19;;;17.00;80.65
77323;BME280;66384;51.052;9.850;2023-07-28T05:38:13;97693.86;;;17.03;80.65
77323;BME280;66384;51.052;9.850;2023-07-28T05:40:45;97700.74;;;17.07;80.62
77323;BME280;66384;51.052;9.850;2023-07-28T05:43:16;97704.33;;;17.12;80.54
77323;BME280;66384;51.052;9.850;2023-07-28T05:45:48;97710.33;;;17.17;80.54
77323;BME280;66384;51.052;9.850;2023-07-28T05:48:20;97711.81;;;17.21;80.48
77323;BME280;66384;51.052;9.850;2023-07-28T05:50:51;97709.48;;;17.26;80.49
77323;BME280;66384;51.052;9.850;2023-07-28T05:53:24;97713.38;;;17.31;80.39
77323;BME280;66384;51.052;9.850;2023-07-28T05:55:55;97713.15;;;17.36;80.33
77323;BME280;66384;51.052;9.850;2023-07-28T05:58:27;97714.65;;;17.40;80.12
77323;BME280;66384;51.052;9.850;2023-07-28T06:00:58;97719.98;;;17.43;79.99
77323;BME280;66384;51.052;9.850;2023-07-28T06:03:30;97724.61;;;17.46;79.89
77323;BME280;66384;51.052;9.850;2023-07-28T06:06:02;97720.91;;;17.50;79.97
77323;BME280;66384;51.052;9.850;2023-07-28T06:08:34;97716.84;;;17.54;79.64
77323;BME280;66384;51.052;9.850;2023-07-28T06:11:07;97719.86;;;17.60;79.50
77323;BME280;66384;51.052;9.850;2023-07-28T06:13:39;97719.26;;;17.64;79.34
77323;BME280;66384;51.052;9.850;2023-07-28T06:16:10;97723.51;;;17.69;79.22
77323;BME280;66384;51.052;9.850;2023-07-28T06:18:42;97723.09;;;17.73;79.14
77323;BME280;66384;51.052;9.850;2023-07-28T06:21:14;97720.94;;;17.77;78.68
77323;BME280;66384;51.052;9.850;2023-07-28T06:23:45;97720.52;;;17.83;78.43
77323;BME280;66384;51.052;9.850;2023-07-28T06:26:17;97720.04;;;17.89;78.49
77323;BME280;66384;51.052;9.850;2023-07-28T06:28:48;97712.98;;;17.96;78.56
77323;BME280;66384;51.052;9.850;2023-07-28T06:31:21;97712.65;;;18.03;78.46
77323;BME280;66384;51.052;9.850;2023-07-28T06:33:52;97710.07;;;18.10;78.51
77323;BME280;66384;51.052;9.850;2023-07-28T06:36:24;97713.73;;;18.19;78.44
77323;BME280;66384;51.052;9.850;2023-07-28T06:38:55;97713.62;;;18.25;78.15
77323;BME280;66384;51.052;9.850;2023-07-28T06:41:27;97714.78;;;18.28;77.81
77323;BME280;66384;51.052;9.850;2023-07-28T06:43:58;97719.06;;;18.31;77.82
77323;BME280;66384;51.052;9.850;2023-07-28T06:46:30;97721.42;;;18.35;77.89
77323;BME280;66384;51.052;9.850;2023-07-28T06:49:01;97720.10;;;18.39;77.63
77323;BME280;66384;51.052;9.850;2023-07-28T06:51:34;97723.56;;;18.41;77.45
77323;BME280;66384;51.052;9.850;2023-07-28T06:54:06;97723.55;;;18.41;77.26
77323;BME280;66384;51.052;9.850;2023-07-28T06:56:42;97728.05;;;18.42;77.20
77323;BME280;66384;51.052;9.850;2023-07-28T06:59:14;97730.11;;;18.44;77.43
77323;BME280;66384;51.052;9.850;2023-07-28T07:01:51;97734.76;;;18.46;77.30
77323;BME280;66384;51.052;9.850;2023-07-28T07:04:23;97737.49;;;18.49;77.05
77323;BME280;66384;51.052;9.850;2023-07-28T07:06:54;97742.48;;;18.52;76.99
77323;BME280;66384;51.052;9.850;2023-07-28T07:09:26;97741.34;;;18.56;77.18
77323;BME280;66384;51.052;9.850;2023-07-28T07:11:57;97743.75;;;18.57;77.01
77323;BME280;66384;51.052;9.850;2023-07-28T07:14:29;97740.80;;;18.56;76.79
77323;BME280;66384;51.052;9.850;2023-07-28T07:17:00;97744.95;;;18.58;76.90
77323;BME280;66384;51.052;9.850;2023-07-28T07:19:32;97742.31;;;18.60;76.77
77323;BME280;66384;51.052;9.850;2023-07-28T07:22:04;97743.92;;;18.66;76.78
77323;BME280;66384;51.052;9.850;2023-07-28T07:24:36;97741.91;;;18.70;76.81
77323;BME280;66384;51.052;9.850;2023-07-28T07:27:08;97751.95;;;18.74;76.99
77323;BME280;66384;51.052;9.850;2023-07-28T07:29:41;97755.73;;;18.78;76.84
77323;BME280;66384;51.052;9.850;2023-07-28T07:32:13;97757.92;;;18.80;76.79
77323;BME280;66384;51.052;9.850;2023-07-28T07:34:46;97759.92;;;18.84;76.47
77323;BME280;66384;51.052;9.850;2023-07-28T07:37:18;97761.45;;;18.86;76.33
77323;BME280;66384;51.052;9.850;2023-07-28T07:39:49;97761.40;;;18.89;76.50
77323;BME280;66384;51.052;9.850;2023-07-28T07:42:20;97763.77;;;18.92;76.53
77323;BME280;66384;51.052;9.850;2023-07-28T07:44:52;97769.27;;;18.95;76.30
77323;BME280;66384;51.052;9.850;2023-07-28T07:47:23;97764.38;;;18.95;76.11
77323;BME280;66384;51.052;9.850;2023-07-28T07:49:55;97760.02;;;18.96;76.13
77323;BME280;66384;51.052;9.850;2023-07-28T07:52:26;97758.23;;;18.97;75.95
77323;BME280;66384;51.052;9.850;2023-07-28T07:54:58;97761.54;;;18.98;75.88
77323;BME280;66384;51.052;9.850;2023-07-28T07:57:30;97766.06;;;18.99;76.05
77323;BME280;66384;51.052;9.850;2023-07-28T08:00:03;97767.34;;;19.04;76.01
77323;BME280;66384;51.052;9.850;2023-07-28T08:02:35;97769.98;;;19.09;75.56
77323;BME280;66384;51.052;9.850;2023-07-28T08:05:08;97769.69;;;19.16;75.37
77323;BME280;66384;51.052;9.850;2023-07-28T08:07:40;97769.86;;;19.23;75.49
77323;BME280;66384;51.052;9.850;2023-07-28T08:10:12;97770.54;;;19.31;75.34
77323;BME280;66384;51.052;9.850;2023-07-28T08:12:44;97775.04;;;19.40;75.08
77323;BME280;66384;51.052;9.850;2023-07-28T08:15:17;97775.89;;;19.48;74.95
77323;BME280;66384;51.052;9.850;2023-07-28T08:17:49;97781.96;;;19.56;74.81
77323;BME280;66384;51.052;9.850;2023-07-28T08:20:21;97780.98;;;19.62;74.49
77323;BME280;66384;51.052;9.850;2023-07-28T08:22:52;97785.79;;;19.65;74.21
77323;BME280;66384;51.052;9.850;2023-07-28T08:25:24;97790.09;;;19.68;73.80
77323;BME280;66384;51.052;9.850;2023-07-28T08:27:55;97789.85;;;19.70;73.28
77323;BME280;66384;51.052;9.850;2023-07-28T08:30:27;97795.20;;;19.73;73.20
77323;BME280;66384;51.052;9.850;2023-07-28T08:32:59;97796.88;;;19.76;73.06
77323;BME280;66384;51.052;9.850;2023-07-28T08:35:30;97796.98;;;19.78;72.97
77323;BME280;66384;51.052;9.850;2023-07-28T08:38:02;97797.23;;;19.82;73.03
77323;BME280;66384;51.052;9.850;2023-07-28T08:40:35;97795.56;;;19.86;72.95
77323;BME280;66384;51.052;9.850;2023-07-28T08:43:07;97799.54;;;19.88;72.75
77323;BME280;66384;51.052;9.850;2023-07-28T08:45:39;97801.70;;;19.92;72.37
77323;BME280;66384;51.052;9.850;2023-07-28T08:48:10;97803.94;;;19.99;72.52
77323;BME280;66384;51.052;9.850;2023-07-28T08:50:42;97807.98;;;20.06;72.30
77323;BME280;66384;51.052;9.850;2023-07-28T08:53:14;97811.91;;;20.15;72.10
77323;BME280;66384;51.052;9.850;2023-07-28T08:55:45;97816.02;;;20.25;72.40
77323;BME280;66384;51.052;9.850;2023-07-28T08:58:21;97817.33;;;20.34;71.96
77323;BME280;66384;51.052;9.850;2023-07-28T09:00:54;97818.35;;;20.41;71.57
77323;BME280;66384;51.052;9.850;2023-07-28T09:03:26;97815.63;;;20.46;71.07
77323;BME280;66384;51.052;9.850;2023-07-28T09:06:01;97818.95;;;20.53;70.92
77323;BME280;66384;51.052;9.850;2023-07-28T09:08:34;97818.06;;;20.59;70.78
77323;BME280;66384;51.052;9.850;2023-07-28T09:11:06;97816.71;;;20.64;70.59
77323;BME280;66384;51.052;9.850;2023-07-28T09:13:41;97822.38;;;20.68;70.64
77323;BME280;66384;51.052;9.850;2023-07-28T09:16:20;97822.33;;;20.69;70.33
77323;BME280;66384;51.052;9.850;2023-07-28T09:18:52;97827.36;;;20.71;70.12
77323;BME280;66384;51.052;9.850;2023-07-28T09:21:35;97829.04;;;20.73;70.40
77323;BME280;66384;51.052;9.850;2023-07-28T09:24:08;97831.45;;;20.75;70.26
77323;BME280;66384;51.052;9.850;2023-07-28T09:26:42;97832.87;;;20.74;70.09
77323;BME280;66384;51.052;9.850;2023-07-28T09:29:16;97836.71;;;20.73;70.10
77323;BME280;66384;51.052;9.850;2023-07-28T09:31:49;97841.52;;;20.71;70.13
77323;BME280;66384;51.052;9.850;2023-07-28T09:34:26;97840.20;;;20.68;70.23
77323;BME280;66384;51.052;9.850;2023-07-28T09:36:58;97843.04;;;20.66;70.20
77323;BME280;66384;51.052;9.850;2023-07-28T09:39:30;97840.07;;;20.66;70.32
77323;BME280;66384;51.052;9.850;2023-07-28T09:42:03;97843.13;;;20.70;70.07
77323;BME280;66384;51.052;9.850;2023-07-28T09:44:35;97842.34;;;20.72;70.18
77323;BME280;66384;51.052;9.850;2023-07-28T09:47:07;97842.95;;;20.76;70.23
77323;BME280;66384;51.052;9.850;2023-07-28T09:49:44;97843.91;;;20.78;70.03
77323;BME280;66384;51.052;9.850;2023-07-28T09:52:19;97844.01;;;20.81;70.00
77323;BME280;66384;51.052;9.850;2023-07-28T09:54:57;97850.70;;;20.86;70.20
77323;BME280;66384;51.052;9.850;2023-07-28T09:57:33;97852.02;;;20.88;70.14
77323;BME280;66384;51.052;9.850;2023-07-28T10:00:10;97854.02;;;20.92;70.42
77323;BME280;66384;51.052;9.850;2023-07-28T10:02:43;97853.43;;;20.94;70.16
77323;BME280;66384;51.052;9.850;2023-07-28T10:05:16;97856.69;;;20.96;70.13
77323;BME280;66384;51.052;9.850;2023-07-28T10:07:49;97855.25;;;20.98;70.21
77323;BME280;66384;51.052;9.850;2023-07-28T10:10:22;97857.55;;;20.97;70.34
77323;BME280;66384;51.052;9.850;2023-07-28T10:12:57;97857.81;;;21.00;70.55
77323;BME280;66384;51.052;9.850;2023-07-28T10:15:32;97857.78;;;21.01;70.34
77323;BME280;66384;51.052;9.850;2023-07-28T10:18:08;97857.63;;;21.00;70.16
77323;BME280;66384;51.052;9.850;2023-07-28T10:20:42;97860.73;;;20.96;70.37
77323;BME280;66384;51.052;9.850;2023-07-28T10:23:19;97862.77;;;20.92;70.19
77323;BME280;66384;51.052;9.850;2023-07-28T10:25:59;97864.80;;;20.87;70.21
77323;BME280;66384;51.052;9.850;2023-07-28T10:28:33;97867.38;;;20.89;70.23
77323;BME280;66384;51.052;9.850;2023-07-28T10:31:10;97869.00;;;21.00;70.06
77323;BME280;66384;51.052;9.850;2023-07-28T10:33:45;97865.70;;;21.17;69.72
77323;BME280;66384;51.052;9.850;2023-07-28T10:36:32;97865.77;;;21.32;69.77
77323;BME280;66384;51.052;9.850;2023-07-28T10:39:14;97867.71;;;21.50;69.07
77323;BME280;66384;51.052;9.850;2023-07-28T10:42:04;97866.30;;;21.56;68.73
77323;BME280;66384;51.052;9.850;2023-07-28T10:44:37;97872.16;;;21.59;68.22
77323;BME280;66384;51.052;9.850;2023-07-28T10:47:11;97868.92;;;21.56;67.93
77323;BME280;66384;51.052;9.850;2023-07-28T10:49:43;97868.46;;;21.54;68.07
77323;BME280;66384;51.052;9.850;2023-07-28T10:52:18;97865.18;;;21.52;68.05
77323;BME280;66384;51.052;9.850;2023-07-28T10:54:50;97874.06;;;21.48;68.33
77323;BME280;66384;51.052;9.850;2023-07-28T10:57:22;97875.06;;;21.38;68.65
77323;BME280;66384;51.052;9.850;2023-07-28T11:00:00;97876.22;;;21.28;68.95
77323;BME280;66384;51.052;9.850;2023-07-28T11:02:32;97868.30;;;21.29;69.59
77323;BME280;66384;51.052;9.850;2023-07-28T11:05:11;97867.77;;;21.35;70.18
77323;BME280;66384;51.052;9.850;2023-07-28T11:07:44;97869.94;;;21.40;70.75
77323;BME280;66384;51.052;9.850;2023-07-28T11:10:16;97859.91;;;21.42;70.68
77323;BME280;66384;51.052;9.850;2023-07-28T11:12:49;97862.13;;;21.44;70.48
77323;BME280;66384;51.052;9.850;2023-07-28T11:15:21;97861.46;;;21.48;70.30
77323;BME280;66384;51.052;9.850;2023-07-28T11:17:54;97864.61;;;21.54;70.52
77323;BME280;66384;51.052;9.850;2023-07-28T11:20:27;97867.79;;;21.64;70.18
77323;BME280;66384;51.052;9.850;2023-07-28T11:23:00;97867.25;;;21.75;69.95
77323;BME280;66384;51.052;9.850;2023-07-28T11:25:34;97866.96;;;21.85;69.83
77323;BME280;66384;51.052;9.850;2023-07-28T11:28:06;97866.25;;;21.90;69.65
77323;BME280;66384;51.052;9.850;2023-07-28T11:30:40;97868.98;;;21.92;69.38
77323;BME280;66384;51.052;9.850;2023-07-28T11:33:14;97870.21;;;21.92;69.44
77323;BME280;66384;51.052;9.850;2023-07-28T11:35:47;97870.17;;;21.93;69.47
77323;BME280;66384;51.052;9.850;2023-07-28T11:38:19;97875.04;;;21.95;69.06
77323;BME280;66384;51.052;9.850;2023-07-28T11:40:52;97879.27;;;21.93;68.22
77323;BME280;66384;51.052;9.850;2023-07-28T11:43:25;97883.58;;;21.90;67.97
77323;BME280;66384;51.052;9.850;2023-07-28T11:45:56;97885.69;;;21.85;68.26
77323;BME280;66384;51.052;9.850;2023-07-28T11:48:31;97883.17;;;21.81;68.59
77323;BME280;66384;51.052;9.850;2023-07-28T11:51:04;97886.10;;;21.77;69.07
77323;BME280;66384;51.052;9.850;2023-07-28T11:53:35;97881.36;;;21.72;69.14
77323;BME280;66384;51.052;9.850;2023-07-28T11:56:08;97879.23;;;21.73;69.57
77323;BME280;66384;51.052;9.850;2023-07-28T11:58:40;97890.25;;;21.79;69.31
77323;BME280;66384;51.052;9.850;2023-07-28T12:01:11;97884.09;;;21.85;69.12
77323;BME280;66384;51.052;9.850;2023-07-28T12:03:44;97881.09;;;21.97;68.84
77323;BME280;66384;51.052;9.850;2023-07-28T12:06:15;97883.79;;;22.11;68.69
77323;BME280;66384;51.052;9.850;2023-07-28T12:09:05;97880.34;;;22.26;68.25
77323;BME280;66384;51.052;9.850;2023-07-28T12:11:44;97871.90;;;22.36;67.71
77323;BME280;66384;51.052;9.850;2023-07-28T12:14:31;97878.86;;;22.48;67.62
77323;BME280;66384;51.052;9.850;2023-07-28T12:17:13;97875.30;;;22.59;66.88
77323;BME280;66384;51.052;9.850;2023-07-28T12:19:59;97876.05;;;22.73;66.94
77323;BME280;66384;51.052;9.850;2023-07-28T12:22:31;97871.66;;;22.83;66.55
77323;BME280;66384;51.052;9.850;2023-07-28T12:25:03;97869.84;;;22.89;65.88
77323;BME280;66384;51.052;9.850;2023-07-28T12:27:35;97868.20;;;22.91;65.93
77323;BME280;66384;51.052;9.850;2023-07-28T12:30:09;97871.75;;;22.96;66.19
77323;BME280;66384;51.052;9.850;2023-07-28T12:32:44;97870.36;;;22.96;66.07
77323;BME280;66384;51.052;9.850;2023-07-28T12:35:18;97874.80;;;22.98;65.88
77323;BME280;66384;51.052;9.850;2023-07-28T12:37:52;97880.71;;;22.95;65.64
77323;BME280;66384;51.052;9.850;2023-07-28T12:40:27;97879.85;;;22.94;65.82
77323;BME280;66384;51.052;9.850;2023-07-28T12:43:03;97876.16;;;23.00;65.65
77323;BME280;66384;51.052;9.850;2023-07-28T12:45:36;97874.45;;;22.99;65.36
77323;BME280;66384;51.052;9.850;2023-07-28T12:48:10;97865.91;;;23.02;65.83
77323;BME280;66384;51.052;9.850;2023-07-28T12:50:50;97866.55;;;23.13;65.84
77323;BME280;66384;51.052;9.850;2023-07-28T12:53:33;97873.17;;;23.23;65.10
77323;BME280;66384;51.052;9.850;2023-07-28T12:56:05;97880.16;;;23.29;64.44
77323;BME280;66384;51.052;9.850;2023-07-28T12:58:37;97877.01;;;23.28;63.62
77323;BME280;66384;51.052;9.850;2023-07-28T13:01:11;97881.76;;;23.24;63.33
77323;BME280;66384;51.052;9.850;2023-07-28T13:03:43;97880.52;;;23.20;63.81
77323;BME280;66384;51.052;9.850;2023-07-28T13:06:14;97877.75;;;23.18;63.79
77323;BME280;66384;51.052;9.850;2023-07-28T13:08:46;97879.02;;;23.12;63.76
77323;BME280;66384;51.052;9.850;2023-07-28T13:11:20;97882.88;;;23.03;63.86
77323;BME280;66384;51.052;9.850;2023-07-28T13:13:52;97882.45;;;22.95;64.10
77323;BME280;66384;51.052;9.850;2023-07-28T13:16:24;97887.59;;;22.88;64.51
77323;BME280;66384;51.052;9.850;2023-07-28T13:18:56;97891.99;;;22.79;65.10
77323;BME280;66384;51.052;9.850;2023-07-28T13:21:27;97891.66;;;22.73;66.05
77323;BME280;66384;51.052;9.850;2023-07-28T13:23:59;97887.80;;;22.68;66.03
77323;BME280;66384;51.052;9.850;2023-07-28T13:26:30;97884.38;;;22.65;66.06
77323;BME280;66384;51.052;9.850;2023-07-28T13:29:02;97885.38;;;22.67;66.23